Metar Cercanos

 

LEPA - Palma De Mallorc, Spain
Distance from station: ONO 38km
Actualización: 24/02/2018 03:30
Few Clouds
Few Clouds
 Viento del calm
Viento: Calma
Temperatura: 0°C
Rocío: 0°C
Humedad: 100%
Barómetro: 1008 hPa
Clouds: Few Clouds
Visibility: 10 km
Cloud details: Few Clouds 762 m
2018/02/24 02:30 LEPA 240230Z 00000KT 9999 FEW025 00/M00 Q1008 NOSIG
LEMH - Mahon/Menorca Is, Spain
Distance from station: ENE 105km
Actualización: 24/02/2018 03:30
Despejado
Despejado
 Viento del NO
Viento: NO 9 km/h
Temperatura: 4°C
Sensación frio: 2°C
Rocío: 1°C
Humedad: 81%
Barómetro: 1007 hPa
Clouds: Despejado
Visibility: 10 km
2018/02/24 02:30 LEMH 240230Z AUTO 31005KT 9999 NCD 04/01 Q1007
 
LEIB - Ibiza/Es Codola, Spain
Distance from station: OSO 165km
Actualización: 24/02/2018 00:00
NOT Current
Few Clouds
Few Clouds
 Viento del varies
Viento: varies 4 km/h
Temperatura: 4°C
Rocío: 3°C
Humedad: 93%
Barómetro: 1007 hPa
Clouds: Few Clouds
Visibility: 10 km
Cloud details: Few Clouds 610 m
2018/02/23 23:00 LEIB 232300Z VRB02KT 9999 FEW020 04/03 Q1007 NOSIG
LEBL - Barcelona Airpor, Spain
Distance from station: NNO 225km
Actualización: 24/02/2018 03:30
Few Clouds
Few Clouds
 Viento del NO
Viento: NO 17 km/h
Temperatura: 4°C
Sensación frio: 0°C
Rocío: -1°C
Humedad: 70%
Barómetro: 1007 hPa
Clouds: Few Clouds
Visibility: 10 km
Cloud details: Few Clouds 762 m
2018/02/24 02:30 LEBL 240230Z 32009KT 9999 FEW025 04/M01 Q1007 NOSIG
 
LEVC - Valencia (civ/Mi, Spain
Distance from station: NO 188km
Actualización: 24/02/2018 03:30
Few Clouds
Few Clouds
 Viento del varies
Viento: varies 4 km/h
Temperatura: 3°C
Rocío: 0°C
Humedad: 81%
Barómetro: 1007 hPa
Clouds: Few Clouds
Visibility: 10 km
Cloud details: Few Clouds 914 m
2018/02/24 02:30 LEVC 240230Z VRB02KT 9999 FEW030 03/00 Q1007 NOSIG
LEGE - Gerona/Costa Bra, Spain
Distance from station: N 276km
Actualización: 24/02/2018 03:30
Mist, Few clouds
Mist, Few clouds
 Viento del calm
Viento: Calma
Temperatura: -2°C
Rocío: -2°C
Humedad: 100%
Barómetro: 1007 hPa
Resumen: Mist
Clouds: Few Clouds
Visibility: 3 km
Cloud details: Few Clouds 610 m
2018/02/24 02:30 LEGE 240230Z 00000KT 3000 BR FEW020 M02/M02 Q1007
 
LEAL - Alicante/El Alte, Spain
Distance from station: OSO 344km
Actualización: 24/02/2018 03:30
Despejado
Despejado
 Viento del ONO
Viento: ONO 7 km/h
Temperatura: 5°C
Sensación frio: 3°C
Rocío: 2°C
Humedad: 81%
Barómetro: 1007 hPa
Resumen: Despejado
Visibility: greater than 10 km
2018/02/24 02:30 LEAL 240230Z 29004KT CAVOK 05/02 Q1007 NOSIG
LEAM - Almeria Airport, Spain
Distance from station: SSO 56km
Actualización: 24/02/2018 03:30
Despejado
Despejado
 Viento del N
Viento: N 13 km/h
Temperatura: 8°C
Sensación frio: 6°C
Rocío: 2°C
Humedad: 66%
Barómetro: 1006 hPa
Clouds: Despejado
Visibility: 10 km
2018/02/24 02:30 LEAM 240230Z AUTO 35007KT 9999 NCD 08/02 Q1006
 
LEZG - Zaragoza (mil/Ci, Spain
Distance from station: NO 431km
Actualización: 24/02/2018 03:30
Despejado
Despejado
 Viento del ONO
Viento: ONO 9 km/h
Temperatura: -2°C
Sensación frio: -6°C
Rocío: -3°C
Humedad: 93%
Barómetro: 1008 hPa
Resumen: Despejado
Visibility: greater than 10 km
2018/02/24 02:30 LEZG 240230Z 29005KT CAVOK M02/M03 Q1008
LEMD - Madrid/Barajas, Spain
Distance from station: ONO 234km
Actualización: 24/02/2018 03:30
Despejado
Despejado
 Viento del NNO
Viento: NNO 6 km/h
Temperatura: -2°C
Rocío: -8°C
Humedad: 64%
Barómetro: 1005 hPa
Resumen: Despejado
Visibility: greater than 10 km
2018/02/24 02:30 LEMD 240230Z 34003KT CAVOK M02/M08 Q1005 NOSIG
 
LEGR - Granada Airport, Spain
Distance from station: OSO 62km
Actualización: 24/02/2018 03:30
Cubierto
Cubierto
 Viento del calm
Viento: Calma
Temperatura: 1°C
Rocío: -1°C
Humedad: 87%
Barómetro: 1005 hPa
Clouds: Cubierto
Visibility: 10 km
Cloud details: Cubierto 1006 m
2018/02/24 02:30 LEGR 240230Z AUTO 00000KT 9999 OVC033/// 01/M01 Q1005
LEMG - Malaga (civ/Mil), Spain
Distance from station: OSO 227km
Actualización: 24/02/2018 03:30
Parcialmente nuboso
Parcialmente nuboso
 Viento del E
Viento: E 20 km/h
Temperatura: 13°C
Rocío: 7°C
Humedad: 67%
Barómetro: 1005 hPa
Clouds: Parcialmente nuboso
Visibility: 10 km
Cloud details: Parcialmente nuboso 610 m
Parcialmente nuboso 914 m
2018/02/24 02:30 LEMG 240230Z 10011KT 060V120 9999 SCT020 SCT030 13/07 Q1005 NOSIG
 
LEZL - Sevilla (civ/Mil, Spain
Distance from station: S 318km
Actualización: 24/02/2018 03:30
Despejado
Despejado
 Viento del calm
Viento: Calma
Temperatura: 4°C
Rocío: -2°C
Humedad: 65%
Barómetro: 1005 hPa
Resumen: Despejado
Visibility: greater than 10 km
2018/02/24 02:30 LEZL 240230Z 00000KT CAVOK 04/M02 Q1005 NOSIG
LEVT - Vitoria, Spain
Distance from station: NO 226km
Actualización: 24/02/2018 03:30
Muy nuboso
Muy nuboso
 Viento del varies
Viento: varies 4 km/h
Temperatura: 1°C
Rocío: -3°C
Humedad: 75%
Barómetro: 1006 hPa
Clouds: Muy nuboso
Visibility: 10 km
Cloud details: Muy nuboso 640 m
2018/02/24 02:30 LEVT 240230Z VRB02KT 9999 BKN021 01/M03 Q1006
 
LEBB - Bilbao/Sondica, Spain
Distance from station: NNO 235km
Actualización: 24/02/2018 03:30
Muy nuboso
Muy nuboso
 Viento del SE
Viento: SE 4 km/h
Temperatura: 5°C
Rocío: 1°C
Humedad: 76%
Barómetro: 1008 hPa
Clouds: Muy nuboso
Visibility: 10 km
Cloud details: Muy nuboso 975 m
2018/02/24 02:30 LEBB 240230Z AUTO 13002KT 9999 BKN032/// 05/01 Q1008
LESO - San Sebastian/Fu, Spain
Distance from station: N 231km
Actualización: 24/02/2018 03:30
Few Clouds
Few Clouds
 Viento del varies
Viento: varies 4 km/h
Temperatura: 2°C
Rocío: -1°C
Humedad: 81%
Barómetro: 1009 hPa
Clouds: Few Clouds
Visibility: 10 km
Cloud details: Few Clouds 1036 m
2018/02/24 02:30 LESO 240230Z AUTO VRB02KT 9999 FEW034/// 02/M01 Q1009
 
LEVD - Valladolid(Mil/C, Spain
Distance from station: ONO 239km
Actualización: 23/02/2018 22:00
NOT Current
Despejado
Despejado
 Viento del N
Viento: N 9 km/h
Temperatura: -2°C
Sensación frio: -6°C
Rocío: -10°C
Humedad: 55%
Barómetro: 1005 hPa
Resumen: Despejado
Visibility: greater than 10 km
2018/02/23 21:00 LEVD 232100Z 35005KT CAVOK M02/M10 Q1005
LESA - Salamanca (civ/M, Spain
Distance from station: ONO 349km
Actualización: 23/02/2018 19:00
NOT Current
Despejado
Despejado
 Viento del ENE
Viento: ENE 11 km/h
Temperatura: 5°C
Sensación frio: 2°C
Rocío: -11°C
Humedad: 31%
Barómetro: 1004 hPa
Resumen: Despejado
Visibility: greater than 10 km
2018/02/23 18:00 LESA 231800Z 06006KT CAVOK 05/M11 Q1004
 
LEXJ - Santander/Paraya, Spain
Distance from station: NNO 247km
Actualización: 24/02/2018 03:30
Despejado
Despejado
 Viento del calm
Viento: Calma
Temperatura: 1°C
Rocío: 0°C
Humedad: 93%
Barómetro: 1008 hPa
Clouds: Despejado
Visibility: 6 km
2018/02/24 02:30 LEXJ 240230Z AUTO 00000KT 6000 NCD 01/00 Q1008
LEAS - Asturias/Aviles, Spain
Distance from station: NO 214km
Actualización: 24/02/2018 03:30
Despejado
Despejado
 Viento del varies
Viento: varies 2 km/h
Temperatura: 2°C
Rocío: 0°C
Humedad: 87%
Barómetro: 1007 hPa
Clouds: Despejado
Visibility: 6 km
2018/02/24 02:30 LEAS 240230Z AUTO VRB01KT 6000 NCD 02/M00 Q1007
 
LECO - La Coruna/Alvedr, Spain
Distance from station: ONO 222km
Actualización: 24/02/2018 03:30
Despejado
Despejado
 Viento del S
Viento: S 9 km/h
Temperatura: 1°C
Sensación frio: -2°C
Rocío: 1°C
Humedad: 100%
Barómetro: 1005 hPa
Clouds: Despejado
Visibility: 8 km
2018/02/24 02:30 LECO 240230Z AUTO 17005KT 8000 NCD 01/01 Q1005
LEVX - Vigo/Peinador, Spain
Distance from station: O 214km
Actualización: 24/02/2018 03:30
Despejado
Despejado
 Viento del SO
Viento: SO 9 km/h
Temperatura: 4°C
Sensación frio: 2°C
Rocío: 0°C
Humedad: 75%
Barómetro: 1005 hPa
Resumen: Despejado
Visibility: greater than 10 km
2018/02/24 02:30 LEVX 240230Z 23005KT 190V270 CAVOK 04/00 Q1005 NOSIG